createdAt,value
2018-10-17T00:00:24.162Z,100545.66
2018-10-17T00:02:51.128Z,100547.25
2018-10-17T00:05:21.199Z,100549.81
2018-10-17T00:07:48.126Z,100546.59
2018-10-17T00:10:15.090Z,100556.66
2018-10-17T00:12:42.094Z,100558.75
2018-10-17T00:15:10.963Z,100554.11
2018-10-17T00:17:38.866Z,100550.45
2018-10-17T00:20:06.799Z,100546.23
2018-10-17T00:22:35.671Z,100553.14
2018-10-17T00:25:02.624Z,100548.61
2018-10-17T00:27:29.518Z,100548.19
2018-10-17T00:29:56.486Z,100541.92
2018-10-17T00:32:23.475Z,100537.88
2018-10-17T00:34:50.441Z,100548.23
2018-10-17T00:37:25.819Z,100545.86
2018-10-17T00:39:53.722Z,100541.91
2018-10-17T00:42:21.736Z,100546.83
2018-10-17T00:44:48.582Z,100543.17
2018-10-17T00:47:15.632Z,100538.20
2018-10-17T00:49:42.501Z,100543.59
2018-10-17T00:52:09.490Z,100546.28
2018-10-17T00:54:36.496Z,100544.91
2018-10-17T00:57:04.425Z,100540.86
2018-10-17T00:59:31.299Z,100544.43
2018-10-17T01:01:59.186Z,100540.95
2018-10-17T01:04:30.632Z,100540.86
2018-10-17T01:06:57.546Z,100536.88
2018-10-17T01:09:24.518Z,100537.06
2018-10-17T01:11:51.479Z,100535.94
2018-10-17T01:14:18.446Z,100540.32
2018-10-17T01:16:46.364Z,100538.16
2018-10-17T01:19:13.390Z,100538.64
2018-10-17T01:21:40.296Z,100533.64
2018-10-17T01:24:07.250Z,100534.16
2018-10-17T01:26:34.122Z,100526.83
2018-10-17T01:29:01.025Z,100528.41
2018-10-17T01:31:27.991Z,100526.30
2018-10-17T01:33:56.886Z,100525.39
2018-10-17T01:36:23.870Z,100519.13
2018-10-17T01:38:50.817Z,100521.71
2018-10-17T01:41:18.819Z,100522.17
2018-10-17T01:43:45.586Z,100521.89
2018-10-17T01:46:15.619Z,100521.48
2018-10-17T01:48:43.517Z,100518.84
2018-10-17T01:51:10.414Z,100516.78
2018-10-17T01:53:37.376Z,100504.52
2018-10-17T01:56:04.682Z,100510.47
2018-10-17T01:58:31.551Z,100511.79
2018-10-17T02:00:59.515Z,100509.92
2018-10-17T02:03:26.474Z,100505.00
2018-10-17T02:05:53.484Z,100508.56
2018-10-17T02:08:21.719Z,100506.78
2018-10-17T02:13:47.123Z,100507.34
2018-10-17T02:16:17.666Z,100501.30
2018-10-17T02:18:44.641Z,100501.78
2018-10-17T02:21:13.523Z,100503.77
2018-10-17T02:23:47.977Z,100504.22
2018-10-17T02:26:14.994Z,100495.13
2018-10-17T02:28:43.849Z,100501.95
2018-10-17T02:31:10.841Z,100501.30
2018-10-17T02:33:37.750Z,100501.03
2018-10-17T02:36:08.090Z,100496.23
2018-10-17T02:38:45.001Z,100497.56
2018-10-17T02:41:26.139Z,100491.56
2018-10-17T02:43:58.406Z,100499.09
2018-10-17T02:46:25.258Z,100500.83
2018-10-17T02:48:52.125Z,100503.08
2018-10-17T02:51:18.971Z,100498.74
2018-10-17T02:53:45.847Z,100498.52
2018-10-17T02:56:12.725Z,100503.78
2018-10-17T02:58:39.581Z,100505.80
2018-10-17T03:01:06.516Z,100499.07
2018-10-17T03:03:33.299Z,100496.47
2018-10-17T03:06:00.185Z,100499.31
2018-10-17T03:08:34.279Z,100498.80
2018-10-17T03:11:01.165Z,100497.27
2018-10-17T03:13:27.992Z,100504.47
2018-10-17T03:15:54.830Z,100506.48
2018-10-17T03:18:21.684Z,100504.55
2018-10-17T03:20:48.541Z,100508.03
2018-10-17T03:23:15.429Z,100503.50
2018-10-17T03:25:42.214Z,100511.55
2018-10-17T03:28:09.085Z,100505.75
2018-10-17T03:30:35.916Z,100501.80
2018-10-17T03:33:02.758Z,100515.55
2018-10-17T03:35:29.651Z,100510.38
2018-10-17T03:37:56.507Z,100504.17
2018-10-17T03:40:23.371Z,100509.38
2018-10-17T03:42:50.223Z,100515.68
2018-10-17T03:45:17.072Z,100508.45
2018-10-17T03:47:43.896Z,100511.36
2018-10-17T03:50:10.743Z,100516.20
2018-10-17T03:52:37.606Z,100511.63
2018-10-17T03:55:04.565Z,100514.12
2018-10-17T03:57:31.386Z,100519.42
2018-10-17T03:59:58.227Z,100517.72
2018-10-17T04:02:25.069Z,100517.42
2018-10-17T04:04:51.989Z,100514.08
2018-10-17T04:07:18.924Z,100515.66
2018-10-17T04:09:45.751Z,100522.24
2018-10-17T04:12:12.682Z,100523.70
2018-10-17T04:14:39.623Z,100523.88
2018-10-17T04:17:06.523Z,100526.02
2018-10-17T04:19:33.315Z,100530.13
2018-10-17T04:22:00.270Z,100526.91
2018-10-17T04:24:27.191Z,100528.16
2018-10-17T04:26:54.039Z,100529.92
2018-10-17T04:29:20.990Z,100532.91
2018-10-17T04:31:47.927Z,100531.39
2018-10-17T04:34:14.893Z,100535.36
2018-10-17T04:36:41.819Z,100535.53
2018-10-17T04:39:10.087Z,100537.64
2018-10-17T04:41:36.942Z,100538.81
2018-10-17T04:44:04.566Z,100534.76
2018-10-17T04:46:31.443Z,100539.06
2018-10-17T04:48:58.482Z,100540.20
2018-10-17T04:51:25.467Z,100539.31
2018-10-17T04:53:52.386Z,100535.27
2018-10-17T04:56:19.326Z,100535.30
2018-10-17T04:58:46.168Z,100535.36
2018-10-17T05:01:13.170Z,100533.04
2018-10-17T05:03:39.971Z,100533.20
2018-10-17T05:06:06.808Z,100539.08
2018-10-17T05:08:33.656Z,100540.09
2018-10-17T05:11:00.556Z,100547.90
2018-10-17T05:13:27.571Z,100554.57
2018-10-17T05:15:54.417Z,100553.48
2018-10-17T05:18:21.263Z,100553.36
2018-10-17T05:20:48.099Z,100551.95
2018-10-17T05:23:15.024Z,100555.77
2018-10-17T05:25:41.794Z,100551.97
2018-10-17T05:28:08.635Z,100550.91
2018-10-17T05:30:35.737Z,100544.57
2018-10-17T05:33:02.582Z,100541.20
2018-10-17T05:35:29.427Z,100548.25
2018-10-17T05:37:56.347Z,100553.87
2018-10-17T05:40:23.126Z,100559.56
2018-10-17T05:42:49.974Z,100551.31
2018-10-17T05:45:16.828Z,100556.72
2018-10-17T05:47:43.670Z,100551.50
2018-10-17T05:50:10.514Z,100547.23
2018-10-17T05:52:37.397Z,100552.48
2018-10-17T05:55:04.581Z,100558.73
2018-10-17T05:57:31.370Z,100565.19
2018-10-17T05:59:58.320Z,100555.69
2018-10-17T06:02:28.408Z,100560.52
2018-10-17T06:04:55.372Z,100565.45
2018-10-17T06:07:22.275Z,100564.94
2018-10-17T06:09:49.228Z,100566.77
2018-10-17T06:12:16.374Z,100568.86
2018-10-17T06:14:43.302Z,100565.15
2018-10-17T06:17:10.277Z,100558.10
2018-10-17T06:19:37.191Z,100559.80
2018-10-17T06:22:04.174Z,100562.69
2018-10-17T06:24:31.067Z,100566.39
2018-10-17T06:26:57.923Z,100571.03
2018-10-17T06:29:24.766Z,100565.02
2018-10-17T06:31:51.727Z,100568.91
2018-10-17T06:34:18.673Z,100563.67
2018-10-17T06:36:45.507Z,100565.66
2018-10-17T06:39:12.455Z,100562.33
2018-10-17T06:41:39.486Z,100566.41
2018-10-17T06:44:06.820Z,100566.84
2018-10-17T06:46:33.593Z,100562.86
2018-10-17T06:49:00.439Z,100572.02
2018-10-17T06:51:27.284Z,100569.27
2018-10-17T06:53:54.203Z,100571.96
2018-10-17T06:56:20.958Z,100576.06
2018-10-17T06:58:47.794Z,100574.12
2018-10-17T07:01:14.726Z,100572.63
2018-10-17T07:03:41.503Z,100575.79
2018-10-17T07:06:08.346Z,100572.06
2018-10-17T07:08:35.271Z,100573.18
2018-10-17T07:11:02.200Z,100570.50
2018-10-17T07:13:29.055Z,100569.05
2018-10-17T07:15:55.994Z,100565.77
2018-10-17T07:18:22.845Z,100568.00
2018-10-17T07:20:49.682Z,100568.72
2018-10-17T07:23:16.607Z,100577.06
2018-10-17T07:25:43.349Z,100568.99
2018-10-17T07:28:10.172Z,100572.53
2018-10-17T07:30:37.027Z,100564.30
2018-10-17T07:33:03.981Z,100565.38
2018-10-17T07:35:30.880Z,100563.97
2018-10-17T07:37:57.650Z,100560.84
2018-10-17T07:40:24.474Z,100564.78
2018-10-17T07:42:51.320Z,100570.14
2018-10-17T07:45:18.157Z,100577.36
2018-10-17T07:47:45.147Z,100572.89
2018-10-17T07:50:12.120Z,100575.65
2018-10-17T07:52:39.247Z,100572.77
2018-10-17T07:55:07.194Z,100576.25
2018-10-17T07:57:34.027Z,100582.78
2018-10-17T08:00:00.934Z,100582.64
2018-10-17T08:02:27.715Z,100578.09
2018-10-17T08:04:54.555Z,100584.91
2018-10-17T08:07:21.426Z,100579.21
2018-10-17T08:09:48.290Z,100583.38
2018-10-17T08:12:15.229Z,100580.38
2018-10-17T08:14:42.087Z,100576.34
2018-10-17T08:17:09.310Z,100572.91
2018-10-17T08:19:36.163Z,100577.98
2018-10-17T08:22:03.374Z,100573.74
2018-10-17T08:24:30.195Z,100576.02
2018-10-17T08:26:57.059Z,100573.25
2018-10-17T08:29:23.904Z,100581.57
2018-10-17T08:31:50.747Z,100577.15
2018-10-17T08:34:17.600Z,100576.27
2018-10-17T08:36:44.776Z,100574.30
2018-10-17T08:39:11.303Z,100576.82
2018-10-17T08:41:38.126Z,100578.80
2018-10-17T08:44:05.046Z,100587.48
2018-10-17T08:46:31.859Z,100584.34
2018-10-17T08:48:58.706Z,100582.22
2018-10-17T08:51:25.555Z,100584.84
2018-10-17T08:53:52.387Z,100587.11
2018-10-17T08:56:19.255Z,100587.92
2018-10-17T08:58:46.089Z,100589.03
2018-10-17T09:01:12.931Z,100583.52
2018-10-17T09:03:39.778Z,100582.62
2018-10-17T09:06:06.720Z,100584.02
2018-10-17T09:08:33.480Z,100583.02
2018-10-17T09:11:00.334Z,100580.77
2018-10-17T09:13:27.234Z,100584.70
2018-10-17T09:15:54.030Z,100587.24
2018-10-17T09:18:20.907Z,100583.56
2018-10-17T09:20:48.002Z,100585.36
2018-10-17T09:23:14.574Z,100580.81
2018-10-17T09:25:41.416Z,100577.69
2018-10-17T09:28:08.334Z,100578.24
2018-10-17T09:30:35.146Z,100580.23
2018-10-17T09:33:01.964Z,100576.37
2018-10-17T09:35:28.859Z,100574.19
2018-10-17T09:37:55.658Z,100572.94
2018-10-17T09:40:22.506Z,100569.83
2018-10-17T09:42:49.350Z,100576.06
2018-10-17T09:45:16.196Z,100574.41
2018-10-17T09:47:43.040Z,100576.37
2018-10-17T09:50:10.404Z,100577.08
2018-10-17T09:52:37.198Z,100574.85
2018-10-17T09:55:04.487Z,100568.28
2018-10-17T09:57:31.339Z,100568.42
2018-10-17T09:59:58.191Z,100562.37
2018-10-17T10:02:25.201Z,100562.09
2018-10-17T10:04:51.875Z,100561.89
2018-10-17T10:07:18.718Z,100563.20
2018-10-17T10:09:45.559Z,100552.22
2018-10-17T10:12:12.500Z,100550.44
2018-10-17T10:17:20.106Z,100553.73
2018-10-17T10:19:46.839Z,100549.55
2018-10-17T10:22:13.714Z,100548.20
2018-10-17T10:24:40.654Z,100542.37
2018-10-17T10:27:07.538Z,100543.80
2018-10-17T10:29:34.500Z,100539.25
2018-10-17T10:32:01.335Z,100532.36
2018-10-17T10:34:28.282Z,100538.24
2018-10-17T10:36:55.215Z,100530.29
2018-10-17T10:39:22.163Z,100529.20
2018-10-17T10:41:49.098Z,100529.38
2018-10-17T10:44:15.988Z,100526.46
2018-10-17T10:46:42.887Z,100524.17
2018-10-17T10:49:09.784Z,100517.20
2018-10-17T10:51:36.761Z,100513.52
2018-10-17T10:54:03.672Z,100515.95
2018-10-17T10:56:30.585Z,100518.11
2018-10-17T10:58:57.532Z,100514.33
2018-10-17T11:01:24.446Z,100508.53
2018-10-17T11:03:51.390Z,100508.97
2018-10-17T11:06:18.235Z,100502.74
2018-10-17T11:08:45.070Z,100494.91
2018-10-17T11:11:11.965Z,100496.23
2018-10-17T11:13:38.788Z,100486.94
2018-10-17T11:16:06.255Z,100487.18
2018-10-17T11:18:33.117Z,100493.56
2018-10-17T11:21:00.000Z,100486.46
2018-10-17T11:23:26.863Z,100489.72
2018-10-17T11:25:53.730Z,100489.48
2018-10-17T11:28:20.566Z,100493.98
2018-10-17T11:30:48.542Z,100491.58
2018-10-17T11:33:15.438Z,100484.16
2018-10-17T11:35:42.233Z,100488.47
2018-10-17T11:38:09.075Z,100476.77
2018-10-17T11:40:35.996Z,100474.21
2018-10-17T11:43:02.771Z,100466.89
2018-10-17T11:45:29.630Z,100462.54
2018-10-17T11:47:56.452Z,100471.78
2018-10-17T11:50:23.360Z,100470.89
2018-10-17T11:52:50.182Z,100465.05
2018-10-17T11:55:17.071Z,100465.68
2018-10-17T11:57:43.983Z,100464.60
2018-10-17T12:00:12.154Z,100455.85
2018-10-17T12:02:39.003Z,100451.41
2018-10-17T12:05:08.546Z,100443.58
2018-10-17T12:07:35.374Z,100444.00
2018-10-17T12:10:02.457Z,100437.77
2018-10-17T12:12:29.469Z,100434.52
2018-10-17T12:14:56.469Z,100430.48
2018-10-17T12:17:23.374Z,100427.97
2018-10-17T12:19:50.335Z,100428.80
2018-10-17T12:22:17.273Z,100422.00
2018-10-17T12:24:44.216Z,100418.88
2018-10-17T12:27:11.121Z,100418.05
2018-10-17T12:29:38.096Z,100417.33
2018-10-17T12:32:05.174Z,100407.23
2018-10-17T12:34:32.114Z,100408.39
2018-10-17T12:36:59.142Z,100409.27
2018-10-17T12:39:26.119Z,100406.25
2018-10-17T12:41:52.903Z,100399.21
2018-10-17T12:44:19.930Z,100402.66
2018-10-17T12:46:46.762Z,100392.44
2018-10-17T12:49:13.846Z,100391.35
2018-10-17T12:51:40.740Z,100394.30
2018-10-17T12:54:07.632Z,100387.38
2018-10-17T12:56:34.699Z,100392.64
2018-10-17T12:59:01.684Z,100390.84
2018-10-17T13:01:28.542Z,100388.40
2018-10-17T13:03:55.503Z,100390.42
2018-10-17T13:06:22.489Z,100383.81
2018-10-17T13:08:49.377Z,100387.59
2018-10-17T13:11:16.433Z,100385.17
2018-10-17T13:13:43.170Z,100387.78
2018-10-17T13:16:10.115Z,100384.03
2018-10-17T13:18:37.083Z,100379.94
2018-10-17T13:21:04.527Z,100370.15
2018-10-17T13:23:31.536Z,100371.55
2018-10-17T13:25:58.707Z,100374.12
2018-10-17T13:28:25.551Z,100362.78
2018-10-17T13:30:52.541Z,100364.89
2018-10-17T13:33:19.546Z,100359.70
2018-10-17T13:35:47.427Z,100355.65
2018-10-17T13:38:14.351Z,100356.77
2018-10-17T13:40:41.319Z,100350.44
2018-10-17T13:43:08.310Z,100357.28
2018-10-17T13:45:35.215Z,100351.91
2018-10-17T13:48:02.148Z,100355.96
2018-10-17T13:50:29.075Z,100352.13
2018-10-17T13:52:56.040Z,100354.25
2018-10-17T13:55:22.945Z,100351.30
2018-10-17T13:57:49.915Z,100350.52
2018-10-17T14:00:16.676Z,100360.83
2018-10-17T14:02:43.999Z,100358.69
2018-10-17T14:05:10.847Z,100357.28
2018-10-17T14:07:37.795Z,100352.99
2018-10-17T14:10:05.063Z,100353.80
2018-10-17T14:12:32.055Z,100357.93
2018-10-17T14:14:59.087Z,100353.61
2018-10-17T14:17:25.903Z,100357.80
2018-10-17T14:19:52.930Z,100357.16
2018-10-17T14:22:19.887Z,100361.48
2018-10-17T14:24:46.820Z,100357.59
2018-10-17T14:27:13.860Z,100355.61
2018-10-17T14:29:40.650Z,100355.61
2018-10-17T14:32:07.547Z,100354.78
2018-10-17T14:34:34.423Z,100344.10
2018-10-17T14:37:01.333Z,100348.09
2018-10-17T14:39:28.295Z,100340.55
2018-10-17T14:41:55.021Z,100350.13
2018-10-17T14:44:21.960Z,100349.77
2018-10-17T14:46:48.814Z,100347.99
2018-10-17T14:49:15.766Z,100349.23
2018-10-17T14:51:42.717Z,100346.30
2018-10-17T14:54:09.719Z,100346.49
2018-10-17T14:56:36.595Z,100342.40
2018-10-17T14:59:03.659Z,100343.48
2018-10-17T15:01:30.555Z,100348.77
2018-10-17T15:03:57.438Z,100344.61
2018-10-17T15:06:24.366Z,100347.23
2018-10-17T15:08:51.264Z,100350.92
2018-10-17T15:11:18.279Z,100347.90
2018-10-17T15:13:45.094Z,100349.77
2018-10-17T15:16:11.951Z,100348.52
2018-10-17T15:18:38.879Z,100347.88
2018-10-17T15:21:05.803Z,100347.83
2018-10-17T15:23:32.672Z,100344.79
2018-10-17T15:25:59.511Z,100345.97
2018-10-17T15:28:26.355Z,100348.95
2018-10-17T15:30:53.302Z,100342.97
2018-10-17T15:33:20.143Z,100347.98
2018-10-17T15:35:46.988Z,100352.44
2018-10-17T15:38:13.930Z,100350.70
2018-10-17T15:40:40.787Z,100352.58
2018-10-17T15:43:07.668Z,100354.50
2018-10-17T15:45:34.478Z,100351.08
2018-10-17T15:48:01.399Z,100348.91
2018-10-17T15:50:29.274Z,100343.25
2018-10-17T15:52:56.138Z,100351.22
2018-10-17T15:55:22.979Z,100352.87
2018-10-17T15:57:49.898Z,100353.09
2018-10-17T16:00:17.859Z,100354.53
2018-10-17T16:02:45.719Z,100351.80
2018-10-17T16:05:12.494Z,100353.80
2018-10-17T16:07:40.862Z,100352.50
2018-10-17T16:10:08.119Z,100353.63
2018-10-17T16:12:35.071Z,100345.71
2018-10-17T16:15:01.991Z,100352.82
2018-10-17T16:17:29.042Z,100360.33
2018-10-17T16:19:55.921Z,100358.60
2018-10-17T16:22:22.888Z,100354.65
2018-10-17T16:24:49.783Z,100362.66
2018-10-17T16:27:16.646Z,100362.34
2018-10-17T16:29:43.543Z,100360.21
2018-10-17T16:32:10.464Z,100362.52
2018-10-17T16:34:37.255Z,100365.28
2018-10-17T16:37:04.336Z,100361.27
2018-10-17T16:39:31.255Z,100373.67
2018-10-17T16:41:58.178Z,100378.12
2018-10-17T16:44:25.003Z,100376.25
2018-10-17T16:46:51.933Z,100377.14
2018-10-17T16:49:18.803Z,100381.71
2018-10-17T16:51:45.651Z,100382.72
2018-10-17T16:54:12.600Z,100384.10
2018-10-17T16:56:39.368Z,100387.44
2018-10-17T16:59:06.218Z,100390.45
2018-10-17T17:01:33.093Z,100388.49
2018-10-17T17:04:00.021Z,100391.19
2018-10-17T17:06:26.903Z,100395.34
2018-10-17T17:08:53.781Z,100399.48
2018-10-17T17:11:20.626Z,100400.65
2018-10-17T17:13:47.475Z,100400.73
2018-10-17T17:16:14.366Z,100406.73
2018-10-17T17:18:41.214Z,100407.27
2018-10-17T17:21:08.120Z,100398.37
2018-10-17T17:23:34.928Z,100406.13
2018-10-17T17:26:01.813Z,100405.50
2018-10-17T17:28:28.678Z,100407.94
2018-10-17T17:30:55.542Z,100405.65
2018-10-17T17:33:22.390Z,100410.06
2018-10-17T17:35:49.254Z,100415.80
2018-10-17T17:38:16.127Z,100413.17
2018-10-17T17:40:42.983Z,100415.94
2018-10-17T17:43:09.854Z,100418.38
2018-10-17T17:45:36.732Z,100411.57
2018-10-17T17:48:03.607Z,100422.41
2018-10-17T17:50:30.487Z,100420.84
2018-10-17T17:52:57.364Z,100418.72
2018-10-17T17:55:24.704Z,100418.63
2018-10-17T17:57:51.664Z,100419.98
2018-10-17T18:00:18.501Z,100416.09
2018-10-17T18:02:45.364Z,100421.84
2018-10-17T18:05:12.264Z,100425.21
2018-10-17T18:07:39.131Z,100429.47
2018-10-17T18:10:06.630Z,100422.31
2018-10-17T18:12:37.232Z,100431.13
2018-10-17T18:15:05.209Z,100435.52
2018-10-17T18:17:32.071Z,100427.46
2018-10-17T18:19:58.933Z,100431.17
2018-10-17T18:22:25.869Z,100425.60
2018-10-17T18:24:52.658Z,100432.48
2018-10-17T18:27:19.595Z,100428.77
2018-10-17T18:29:46.457Z,100429.42
2018-10-17T18:32:13.315Z,100436.98
2018-10-17T18:34:40.179Z,100433.41
2018-10-17T18:37:07.107Z,100439.09
2018-10-17T18:39:34.071Z,100440.66
2018-10-17T18:42:00.956Z,100437.28
2018-10-17T18:44:27.951Z,100437.92
2018-10-17T18:46:55.810Z,100438.73
2018-10-17T18:49:22.672Z,100444.54
2018-10-17T18:51:49.539Z,100443.33
2018-10-17T18:54:16.401Z,100446.13
2018-10-17T18:56:43.281Z,100444.14
2018-10-17T18:59:10.171Z,100452.52
2018-10-17T19:01:37.149Z,100460.02
2018-10-17T19:04:04.331Z,100457.44
2018-10-17T19:06:31.186Z,100463.72
2018-10-17T19:08:58.056Z,100463.92
2018-10-17T19:11:24.930Z,100467.17
2018-10-17T19:13:51.783Z,100468.44
2018-10-17T19:16:18.685Z,100471.14
2018-10-17T19:18:45.503Z,100475.45
2018-10-17T19:21:12.433Z,100479.29
2018-10-17T19:23:39.522Z,100478.17
2018-10-17T19:26:06.420Z,100479.03
2018-10-17T19:28:33.299Z,100475.14
2018-10-17T19:31:00.173Z,100475.55
2018-10-17T19:33:27.047Z,100476.52
2018-10-17T19:35:53.962Z,100479.96
2018-10-17T19:38:20.800Z,100471.56
2018-10-17T19:40:47.920Z,100480.25
2018-10-17T19:43:14.811Z,100478.94
2018-10-17T19:45:41.648Z,100486.34
2018-10-17T19:48:08.539Z,100486.48
2018-10-17T19:50:35.454Z,100487.27
2018-10-17T19:53:02.364Z,100493.66
2018-10-17T19:55:29.215Z,100491.06
2018-10-17T19:57:56.064Z,100491.23
2018-10-17T20:00:22.971Z,100486.31
2018-10-17T20:02:50.479Z,100487.30
2018-10-17T20:05:17.340Z,100487.09
2018-10-17T20:07:44.299Z,100487.73
2018-10-17T20:10:11.123Z,100493.37
2018-10-17T20:12:38.019Z,100493.61
2018-10-17T20:15:05.596Z,100489.67
2018-10-17T20:17:32.427Z,100492.61
2018-10-17T20:19:59.279Z,100494.81
2018-10-17T20:22:26.155Z,100497.29
2018-10-17T20:24:53.089Z,100496.80
2018-10-17T20:27:19.987Z,100499.58
2018-10-17T20:29:46.855Z,100498.58
2018-10-17T20:32:13.739Z,100496.82
2018-10-17T20:34:40.599Z,100496.92
2018-10-17T20:37:07.472Z,100496.73
2018-10-17T20:39:34.327Z,100507.51
2018-10-17T20:42:01.281Z,100506.38
2018-10-17T20:44:28.412Z,100503.27
2018-10-17T20:46:55.291Z,100512.30
2018-10-17T20:49:22.148Z,100510.66
2018-10-17T20:51:48.998Z,100515.45
2018-10-17T20:54:15.858Z,100512.45
2018-10-17T20:56:42.711Z,100510.22
2018-10-17T20:59:09.618Z,100516.06
2018-10-17T21:01:36.593Z,100521.48
2018-10-17T21:04:03.496Z,100520.31
2018-10-17T21:06:30.344Z,100528.23
2018-10-17T21:08:57.195Z,100527.25
2018-10-17T21:11:24.125Z,100530.36
2018-10-17T21:13:50.919Z,100535.30
2018-10-17T21:16:17.835Z,100528.89
2018-10-17T21:18:44.765Z,100524.14
2018-10-17T21:21:11.559Z,100524.63
2018-10-17T21:23:38.423Z,100526.45
2018-10-17T21:26:05.341Z,100522.67
2018-10-17T21:28:32.206Z,100523.83
2018-10-17T21:30:59.055Z,100517.29
2018-10-17T21:33:25.911Z,100516.27
2018-10-17T21:35:52.974Z,100517.28
2018-10-17T21:38:19.962Z,100516.78
2018-10-17T21:40:46.744Z,100516.92
2018-10-17T21:43:13.607Z,100512.70
2018-10-17T21:45:40.474Z,100512.55
2018-10-17T21:48:07.335Z,100505.52
2018-10-17T21:50:34.235Z,100508.63
2018-10-17T21:53:01.101Z,100509.27
2018-10-17T21:55:27.947Z,100509.22
2018-10-17T21:57:54.816Z,100509.87
2018-10-17T22:00:21.663Z,100508.58
2018-10-17T22:02:48.531Z,100511.18
2018-10-17T22:05:15.384Z,100508.56
2018-10-17T22:07:42.247Z,100508.58
2018-10-17T22:10:09.222Z,100508.11
2018-10-17T22:12:36.264Z,100507.59
2018-10-17T22:15:03.943Z,100513.02
2018-10-17T22:17:30.812Z,100511.37
2018-10-17T22:19:57.783Z,100514.63
2018-10-17T22:22:25.039Z,100512.80
2018-10-17T22:24:52.492Z,100516.92
2018-10-17T22:27:19.571Z,100508.60
2018-10-17T22:29:46.473Z,100514.84
2018-10-17T22:32:14.341Z,100517.73
2018-10-17T22:34:41.203Z,100515.13
2018-10-17T22:37:08.079Z,100515.62
2018-10-17T22:39:34.991Z,100514.50
2018-10-17T22:42:01.843Z,100520.17
2018-10-17T22:44:28.711Z,100522.02
2018-10-17T22:46:55.575Z,100517.06
2018-10-17T22:49:22.433Z,100517.09
2018-10-17T22:51:49.300Z,100513.62
2018-10-17T22:54:16.158Z,100511.45
2018-10-17T22:56:43.015Z,100516.55
2018-10-17T22:59:09.878Z,100509.00
2018-10-17T23:01:37.251Z,100512.44
2018-10-17T23:04:04.479Z,100513.09
2018-10-17T23:06:31.331Z,100507.98
2018-10-17T23:08:58.198Z,100512.77
2018-10-17T23:11:25.071Z,100510.15
2018-10-17T23:13:52.001Z,100514.59
2018-10-17T23:16:18.859Z,100523.06
2018-10-17T23:18:45.724Z,100516.36
2018-10-17T23:21:12.611Z,100513.09
2018-10-17T23:23:39.484Z,100516.65
2018-10-17T23:26:06.741Z,100518.48
2018-10-17T23:28:33.579Z,100514.78
2018-10-17T23:31:01.424Z,100514.16
2018-10-17T23:33:28.285Z,100515.47
2018-10-17T23:35:55.138Z,100514.83
2018-10-17T23:38:21.999Z,100514.66
2018-10-17T23:40:48.861Z,100510.27
2018-10-17T23:43:15.721Z,100506.28
2018-10-17T23:45:43.602Z,100505.30
2018-10-17T23:48:10.560Z,100509.52
2018-10-17T23:50:37.979Z,100507.86
2018-10-17T23:53:04.943Z,100511.45
2018-10-17T23:55:31.813Z,100512.77
2018-10-17T23:57:58.669Z,100515.22
